sensor_id;sensor_type;location;lat;lon;timestamp;temperature;humidity
37846;DHT22;23686;49.828;8.702;2022-12-18T00:01:41;-6.60;99.90
37846;DHT22;23686;49.828;8.702;2022-12-18T00:04:07;-6.60;99.90
37846;DHT22;23686;49.828;8.702;2022-12-18T00:06:33;-6.60;99.90
37846;DHT22;23686;49.828;8.702;2022-12-18T00:09:00;-6.60;99.90
37846;DHT22;23686;49.828;8.702;2022-12-18T00:11:27;-6.60;99.90
37846;DHT22;23686;49.828;8.702;2022-12-18T00:13:54;-6.60;99.90
37846;DHT22;23686;49.828;8.702;2022-12-18T00:16:21;-6.50;99.90
37846;DHT22;23686;49.828;8.702;2022-12-18T00:18:47;-6.50;99.90
37846;DHT22;23686;49.828;8.702;2022-12-18T00:21:13;-6.50;99.90
37846;DHT22;23686;49.828;8.702;2022-12-18T00:23:39;-6.40;99.90
37846;DHT22;23686;49.828;8.702;2022-12-18T00:26:06;-6.50;99.90
37846;DHT22;23686;49.828;8.702;2022-12-18T00:28:31;-6.50;99.90
37846;DHT22;23686;49.828;8.702;2022-12-18T00:31:08;-6.50;99.90
37846;DHT22;23686;49.828;8.702;2022-12-18T00:33:33;-6.50;99.90
37846;DHT22;23686;49.828;8.702;2022-12-18T00:36:06;-6.40;99.90
37846;DHT22;23686;49.828;8.702;2022-12-18T00:38:32;-6.40;99.90
37846;DHT22;23686;49.828;8.702;2022-12-18T00:40:58;-6.40;99.90
37846;DHT22;23686;49.828;8.702;2022-12-18T00:43:23;-6.40;99.90
37846;DHT22;23686;49.828;8.702;2022-12-18T00:45:49;-6.50;99.90
37846;DHT22;23686;49.828;8.702;2022-12-18T00:48:14;-6.60;99.90
37846;DHT22;23686;49.828;8.702;2022-12-18T00:50:40;-6.60;99.90
37846;DHT22;23686;49.828;8.702;2022-12-18T00:53:05;-6.60;99.90
37846;DHT22;23686;49.828;8.702;2022-12-18T00:55:31;-6.70;99.90
37846;DHT22;23686;49.828;8.702;2022-12-18T00:57:56;-6.80;99.90
37846;DHT22;23686;49.828;8.702;2022-12-18T01:00:22;-6.80;99.90
37846;DHT22;23686;49.828;8.702;2022-12-18T01:02:48;-6.70;99.90
37846;DHT22;23686;49.828;8.702;2022-12-18T01:05:13;-6.70;99.90
37846;DHT22;23686;49.828;8.702;2022-12-18T01:07:39;-6.70;99.90
37846;DHT22;23686;49.828;8.702;2022-12-18T01:10:05;-6.70;99.90
37846;DHT22;23686;49.828;8.702;2022-12-18T01:12:31;-6.70;99.90
37846;DHT22;23686;49.828;8.702;2022-12-18T01:14:56;-6.60;99.90
37846;DHT22;23686;49.828;8.702;2022-12-18T01:17:22;-6.70;99.90
37846;DHT22;23686;49.828;8.702;2022-12-18T01:19:48;-6.70;99.90
37846;DHT22;23686;49.828;8.702;2022-12-18T01:22:13;-6.80;99.90
37846;DHT22;23686;49.828;8.702;2022-12-18T01:24:39;-6.80;99.90
37846;DHT22;23686;49.828;8.702;2022-12-18T01:27:04;-6.70;99.90
37846;DHT22;23686;49.828;8.702;2022-12-18T01:29:30;-6.80;99.90
37846;DHT22;23686;49.828;8.702;2022-12-18T01:31:55;-6.80;99.90
37846;DHT22;23686;49.828;8.702;2022-12-18T01:34:21;-6.70;99.90
37846;DHT22;23686;49.828;8.702;2022-12-18T01:36:47;-6.80;99.90
37846;DHT22;23686;49.828;8.702;2022-12-18T01:39:13;-6.70;99.90
37846;DHT22;23686;49.828;8.702;2022-12-18T01:41:39;-6.70;99.90
37846;DHT22;23686;49.828;8.702;2022-12-18T01:47:07;-6.80;99.90
37846;DHT22;23686;49.828;8.702;2022-12-18T01:49:33;-6.70;99.90
37846;DHT22;23686;49.828;8.702;2022-12-18T01:51:58;-6.70;99.90
37846;DHT22;23686;49.828;8.702;2022-12-18T01:54:24;-6.60;99.90
37846;DHT22;23686;49.828;8.702;2022-12-18T01:56:49;-6.60;99.90
37846;DHT22;23686;49.828;8.702;2022-12-18T01:59:14;-6.60;99.90
37846;DHT22;23686;49.828;8.702;2022-12-18T02:01:40;-6.60;99.90
37846;DHT22;23686;49.828;8.702;2022-12-18T02:04:22;-6.60;99.90
37846;DHT22;23686;49.828;8.702;2022-12-18T02:06:50;-6.60;99.90
37846;DHT22;23686;49.828;8.702;2022-12-18T02:09:20;-6.70;99.90
37846;DHT22;23686;49.828;8.702;2022-12-18T02:12:05;-6.70;99.90
37846;DHT22;23686;49.828;8.702;2022-12-18T02:14:48;-6.80;99.90
37846;DHT22;23686;49.828;8.702;2022-12-18T02:17:19;-6.90;99.90
37846;DHT22;23686;49.828;8.702;2022-12-18T02:22:42;-6.90;99.90
37846;DHT22;23686;49.828;8.702;2022-12-18T02:27:54;-6.90;99.90
37846;DHT22;23686;49.828;8.702;2022-12-18T02:30:21;-6.90;99.90
37846;DHT22;23686;49.828;8.702;2022-12-18T02:32:51;-6.80;99.90
37846;DHT22;23686;49.828;8.702;2022-12-18T02:35:22;-6.80;99.90
37846;DHT22;23686;49.828;8.702;2022-12-18T02:37:49;-6.80;99.90
37846;DHT22;23686;49.828;8.702;2022-12-18T02:40:15;-6.80;99.90
37846;DHT22;23686;49.828;8.702;2022-12-18T02:42:41;-6.80;99.90
37846;DHT22;23686;49.828;8.702;2022-12-18T02:45:07;-6.90;99.90
37846;DHT22;23686;49.828;8.702;2022-12-18T02:47:33;-6.80;99.90
37846;DHT22;23686;49.828;8.702;2022-12-18T02:52:32;-6.70;99.90
37846;DHT22;23686;49.828;8.702;2022-12-18T02:57:45;-6.80;99.90
37846;DHT22;23686;49.828;8.702;2022-12-18T03:00:14;-6.80;99.90
37846;DHT22;23686;49.828;8.702;2022-12-18T03:05:47;-6.80;99.90
37846;DHT22;23686;49.828;8.702;2022-12-18T03:08:16;-6.80;99.90
37846;DHT22;23686;49.828;8.702;2022-12-18T03:10:45;-6.80;99.90
37846;DHT22;23686;49.828;8.702;2022-12-18T03:13:13;-6.90;99.90
37846;DHT22;23686;49.828;8.702;2022-12-18T03:15:42;-6.90;99.90
37846;DHT22;23686;49.828;8.702;2022-12-18T03:18:13;-6.90;99.90
37846;DHT22;23686;49.828;8.702;2022-12-18T03:20:40;-6.80;99.90
37846;DHT22;23686;49.828;8.702;2022-12-18T03:23:08;-6.80;99.90
37846;DHT22;23686;49.828;8.702;2022-12-18T03:25:34;-6.80;99.90
37846;DHT22;23686;49.828;8.702;2022-12-18T03:28:00;-6.90;99.90
37846;DHT22;23686;49.828;8.702;2022-12-18T03:30:27;-6.80;99.90
37846;DHT22;23686;49.828;8.702;2022-12-18T03:35:30;-6.80;99.90
37846;DHT22;23686;49.828;8.702;2022-12-18T03:37:57;-6.80;99.90
37846;DHT22;23686;49.828;8.702;2022-12-18T03:40:25;-6.80;99.90
37846;DHT22;23686;49.828;8.702;2022-12-18T03:42:55;-6.80;99.90
37846;DHT22;23686;49.828;8.702;2022-12-18T03:45:36;-6.70;99.90
37846;DHT22;23686;49.828;8.702;2022-12-18T03:48:15;-6.70;99.90
37846;DHT22;23686;49.828;8.702;2022-12-18T03:53:20;-6.60;99.90
37846;DHT22;23686;49.828;8.702;2022-12-18T03:55:46;-6.70;99.90
37846;DHT22;23686;49.828;8.702;2022-12-18T03:58:13;-6.70;99.90
37846;DHT22;23686;49.828;8.702;2022-12-18T04:00:40;-6.80;99.90
37846;DHT22;23686;49.828;8.702;2022-12-18T04:03:06;-6.80;99.90
37846;DHT22;23686;49.828;8.702;2022-12-18T04:05:33;-6.70;99.90
37846;DHT22;23686;49.828;8.702;2022-12-18T04:08:00;-6.70;99.90
37846;DHT22;23686;49.828;8.702;2022-12-18T04:10:26;-6.80;99.90
37846;DHT22;23686;49.828;8.702;2022-12-18T04:12:55;-6.80;99.90
37846;DHT22;23686;49.828;8.702;2022-12-18T04:15:20;-6.80;99.90
37846;DHT22;23686;49.828;8.702;2022-12-18T04:17:47;-6.80;99.90
37846;DHT22;23686;49.828;8.702;2022-12-18T04:20:13;-6.80;99.90
37846;DHT22;23686;49.828;8.702;2022-12-18T04:22:39;-6.80;99.90
37846;DHT22;23686;49.828;8.702;2022-12-18T04:25:04;-6.70;99.90
37846;DHT22;23686;49.828;8.702;2022-12-18T04:27:30;-6.60;99.90
37846;DHT22;23686;49.828;8.702;2022-12-18T04:29:55;-6.60;99.90
37846;DHT22;23686;49.828;8.702;2022-12-18T04:32:21;-6.60;99.90
37846;DHT22;23686;49.828;8.702;2022-12-18T04:34:46;-6.60;99.90
37846;DHT22;23686;49.828;8.702;2022-12-18T04:37:11;-6.60;99.90
37846;DHT22;23686;49.828;8.702;2022-12-18T04:39:37;-6.50;99.90
37846;DHT22;23686;49.828;8.702;2022-12-18T04:42:02;-6.50;99.90
37846;DHT22;23686;49.828;8.702;2022-12-18T04:44:28;-6.50;99.90
37846;DHT22;23686;49.828;8.702;2022-12-18T04:46:53;-6.40;99.90
37846;DHT22;23686;49.828;8.702;2022-12-18T04:49:19;-6.30;99.90
37846;DHT22;23686;49.828;8.702;2022-12-18T04:51:44;-6.40;99.90
37846;DHT22;23686;49.828;8.702;2022-12-18T04:54:09;-6.40;99.90
37846;DHT22;23686;49.828;8.702;2022-12-18T04:56:35;-6.40;99.90
37846;DHT22;23686;49.828;8.702;2022-12-18T04:59:00;-6.40;99.90
37846;DHT22;23686;49.828;8.702;2022-12-18T05:01:26;-6.50;99.90
37846;DHT22;23686;49.828;8.702;2022-12-18T05:03:51;-6.50;99.90
37846;DHT22;23686;49.828;8.702;2022-12-18T05:06:17;-6.50;99.90
37846;DHT22;23686;49.828;8.702;2022-12-18T05:08:42;-6.50;99.90
37846;DHT22;23686;49.828;8.702;2022-12-18T05:11:09;-6.50;99.90
37846;DHT22;23686;49.828;8.702;2022-12-18T05:13:35;-6.40;99.90
37846;DHT22;23686;49.828;8.702;2022-12-18T05:16:02;-6.40;99.90
37846;DHT22;23686;49.828;8.702;2022-12-18T05:18:27;-6.40;99.90
37846;DHT22;23686;49.828;8.702;2022-12-18T05:20:53;-6.30;99.90
37846;DHT22;23686;49.828;8.702;2022-12-18T05:23:19;-6.30;99.90
37846;DHT22;23686;49.828;8.702;2022-12-18T05:25:55;-6.20;99.90
37846;DHT22;23686;49.828;8.702;2022-12-18T05:28:21;-6.20;99.90
37846;DHT22;23686;49.828;8.702;2022-12-18T05:30:48;-6.20;99.90
37846;DHT22;23686;49.828;8.702;2022-12-18T05:33:13;-6.10;99.90
37846;DHT22;23686;49.828;8.702;2022-12-18T05:35:39;-6.10;99.90
37846;DHT22;23686;49.828;8.702;2022-12-18T05:38:04;-6.10;99.90
37846;DHT22;23686;49.828;8.702;2022-12-18T05:40:30;-6.10;99.90
37846;DHT22;23686;49.828;8.702;2022-12-18T05:42:55;-6.10;99.90
37846;DHT22;23686;49.828;8.702;2022-12-18T05:45:21;-6.10;99.90
37846;DHT22;23686;49.828;8.702;2022-12-18T05:47:46;-6.10;99.90
37846;DHT22;23686;49.828;8.702;2022-12-18T05:50:12;-6.10;99.90
37846;DHT22;23686;49.828;8.702;2022-12-18T05:52:38;-6.10;99.90
37846;DHT22;23686;49.828;8.702;2022-12-18T05:55:03;-6.10;99.90
37846;DHT22;23686;49.828;8.702;2022-12-18T05:57:30;-6.10;99.90
37846;DHT22;23686;49.828;8.702;2022-12-18T05:59:55;-6.10;99.90
37846;DHT22;23686;49.828;8.702;2022-12-18T06:02:21;-6.10;99.90
37846;DHT22;23686;49.828;8.702;2022-12-18T06:04:46;-6.10;99.90
37846;DHT22;23686;49.828;8.702;2022-12-18T06:07:12;-6.10;99.90
37846;DHT22;23686;49.828;8.702;2022-12-18T06:09:37;-6.20;99.90
37846;DHT22;23686;49.828;8.702;2022-12-18T06:12:03;-6.10;99.90
37846;DHT22;23686;49.828;8.702;2022-12-18T06:14:29;-6.10;99.90
37846;DHT22;23686;49.828;8.702;2022-12-18T06:16:54;-6.10;99.90
37846;DHT22;23686;49.828;8.702;2022-12-18T06:19:20;-6.00;99.90
37846;DHT22;23686;49.828;8.702;2022-12-18T06:21:46;-6.00;99.90
37846;DHT22;23686;49.828;8.702;2022-12-18T06:24:11;-5.90;99.90
37846;DHT22;23686;49.828;8.702;2022-12-18T06:26:37;-5.90;99.90
37846;DHT22;23686;49.828;8.702;2022-12-18T06:29:04;-5.90;99.90
37846;DHT22;23686;49.828;8.702;2022-12-18T06:31:29;-5.90;99.90
37846;DHT22;23686;49.828;8.702;2022-12-18T06:33:55;-6.00;99.90
37846;DHT22;23686;49.828;8.702;2022-12-18T06:36:20;-6.00;99.90
37846;DHT22;23686;49.828;8.702;2022-12-18T06:38:46;-6.00;99.90
37846;DHT22;23686;49.828;8.702;2022-12-18T06:41:13;-6.00;99.90
37846;DHT22;23686;49.828;8.702;2022-12-18T06:43:39;-6.00;99.90
37846;DHT22;23686;49.828;8.702;2022-12-18T06:46:04;-6.00;99.90
37846;DHT22;23686;49.828;8.702;2022-12-18T06:48:30;-6.00;99.90
37846;DHT22;23686;49.828;8.702;2022-12-18T06:50:56;-6.00;99.90
37846;DHT22;23686;49.828;8.702;2022-12-18T06:53:21;-6.00;99.90
37846;DHT22;23686;49.828;8.702;2022-12-18T06:55:47;-6.10;99.90
37846;DHT22;23686;49.828;8.702;2022-12-18T06:58:12;-6.20;99.90
37846;DHT22;23686;49.828;8.702;2022-12-18T07:00:37;-6.20;99.90
37846;DHT22;23686;49.828;8.702;2022-12-18T07:03:03;-6.20;99.90
37846;DHT22;23686;49.828;8.702;2022-12-18T07:05:28;-6.20;99.90
37846;DHT22;23686;49.828;8.702;2022-12-18T07:07:54;-6.30;99.90
37846;DHT22;23686;49.828;8.702;2022-12-18T07:10:19;-6.30;99.90
37846;DHT22;23686;49.828;8.702;2022-12-18T07:12:45;-6.40;99.90
37846;DHT22;23686;49.828;8.702;2022-12-18T07:15:10;-6.40;99.90
37846;DHT22;23686;49.828;8.702;2022-12-18T07:17:36;-6.40;99.90
37846;DHT22;23686;49.828;8.702;2022-12-18T07:20:01;-6.50;99.90
37846;DHT22;23686;49.828;8.702;2022-12-18T07:22:27;-6.60;99.90
37846;DHT22;23686;49.828;8.702;2022-12-18T07:24:52;-6.60;99.90
37846;DHT22;23686;49.828;8.702;2022-12-18T07:27:18;-6.60;99.90
37846;DHT22;23686;49.828;8.702;2022-12-18T07:29:43;-6.70;99.90
37846;DHT22;23686;49.828;8.702;2022-12-18T07:32:09;-6.70;99.90
37846;DHT22;23686;49.828;8.702;2022-12-18T07:34:34;-6.70;99.90
37846;DHT22;23686;49.828;8.702;2022-12-18T07:37:00;-6.60;99.90
37846;DHT22;23686;49.828;8.702;2022-12-18T07:39:25;-6.60;99.90
37846;DHT22;23686;49.828;8.702;2022-12-18T07:41:51;-6.60;99.90
37846;DHT22;23686;49.828;8.702;2022-12-18T07:44:35;-6.60;99.90
37846;DHT22;23686;49.828;8.702;2022-12-18T07:47:01;-6.60;99.90
37846;DHT22;23686;49.828;8.702;2022-12-18T07:49:27;-6.60;99.90
37846;DHT22;23686;49.828;8.702;2022-12-18T07:51:53;-6.60;99.90
37846;DHT22;23686;49.828;8.702;2022-12-18T07:54:19;-6.60;99.90
37846;DHT22;23686;49.828;8.702;2022-12-18T07:56:44;-6.60;99.90
37846;DHT22;23686;49.828;8.702;2022-12-18T07:59:10;-6.70;99.90
37846;DHT22;23686;49.828;8.702;2022-12-18T08:01:35;-6.70;99.90
37846;DHT22;23686;49.828;8.702;2022-12-18T08:04:01;-6.60;99.90
37846;DHT22;23686;49.828;8.702;2022-12-18T08:06:26;-6.60;99.90
37846;DHT22;23686;49.828;8.702;2022-12-18T08:08:52;-6.60;99.90
37846;DHT22;23686;49.828;8.702;2022-12-18T08:11:18;-6.60;99.90
37846;DHT22;23686;49.828;8.702;2022-12-18T08:13:44;-6.50;99.90
37846;DHT22;23686;49.828;8.702;2022-12-18T08:16:09;-6.50;99.90
37846;DHT22;23686;49.828;8.702;2022-12-18T08:18:35;-6.40;99.90
37846;DHT22;23686;49.828;8.702;2022-12-18T08:21:08;-6.40;99.90
37846;DHT22;23686;49.828;8.702;2022-12-18T08:23:34;-6.40;99.90
37846;DHT22;23686;49.828;8.702;2022-12-18T08:26:00;-6.30;99.90
37846;DHT22;23686;49.828;8.702;2022-12-18T08:28:25;-6.30;99.90
37846;DHT22;23686;49.828;8.702;2022-12-18T08:30:51;-6.20;99.90
37846;DHT22;23686;49.828;8.702;2022-12-18T08:33:17;-6.20;99.90
37846;DHT22;23686;49.828;8.702;2022-12-18T08:35:42;-6.10;99.90
37846;DHT22;23686;49.828;8.702;2022-12-18T08:38:08;-6.10;99.90
37846;DHT22;23686;49.828;8.702;2022-12-18T08:40:36;-6.10;99.90
37846;DHT22;23686;49.828;8.702;2022-12-18T08:43:02;-6.00;99.90
37846;DHT22;23686;49.828;8.702;2022-12-18T08:45:46;-5.90;99.90
37846;DHT22;23686;49.828;8.702;2022-12-18T08:48:11;-5.90;99.90
37846;DHT22;23686;49.828;8.702;2022-12-18T08:50:37;-5.80;99.90
37846;DHT22;23686;49.828;8.702;2022-12-18T08:53:03;-5.80;99.90
37846;DHT22;23686;49.828;8.702;2022-12-18T08:55:29;-5.70;99.90
37846;DHT22;23686;49.828;8.702;2022-12-18T08:57:54;-5.70;99.90
37846;DHT22;23686;49.828;8.702;2022-12-18T09:00:20;-5.60;99.90
37846;DHT22;23686;49.828;8.702;2022-12-18T09:02:45;-5.60;99.90
37846;DHT22;23686;49.828;8.702;2022-12-18T09:05:11;-5.50;99.90
37846;DHT22;23686;49.828;8.702;2022-12-18T09:07:36;-5.40;99.90
37846;DHT22;23686;49.828;8.702;2022-12-18T09:10:02;-5.30;99.90
37846;DHT22;23686;49.828;8.702;2022-12-18T09:12:28;-5.30;99.90
37846;DHT22;23686;49.828;8.702;2022-12-18T09:14:53;-5.20;99.90
37846;DHT22;23686;49.828;8.702;2022-12-18T09:17:19;-5.10;99.90
37846;DHT22;23686;49.828;8.702;2022-12-18T09:19:44;-5.00;99.90
37846;DHT22;23686;49.828;8.702;2022-12-18T09:22:10;-4.90;99.90
37846;DHT22;23686;49.828;8.702;2022-12-18T09:24:35;-4.80;99.90
37846;DHT22;23686;49.828;8.702;2022-12-18T09:27:01;-4.80;99.90
37846;DHT22;23686;49.828;8.702;2022-12-18T09:29:26;-4.70;99.90
37846;DHT22;23686;49.828;8.702;2022-12-18T09:31:52;-4.70;99.90
37846;DHT22;23686;49.828;8.702;2022-12-18T09:34:17;-4.60;99.90
37846;DHT22;23686;49.828;8.702;2022-12-18T09:36:43;-4.50;99.90
37846;DHT22;23686;49.828;8.702;2022-12-18T09:39:08;-4.40;99.90
37846;DHT22;23686;49.828;8.702;2022-12-18T09:41:39;-4.30;99.90
37846;DHT22;23686;49.828;8.702;2022-12-18T09:47:35;-4.30;99.90
37846;DHT22;23686;49.828;8.702;2022-12-18T09:49:37;-4.20;99.90
37846;DHT22;23686;49.828;8.702;2022-12-18T09:52:07;-4.10;99.90
37846;DHT22;23686;49.828;8.702;2022-12-18T09:54:39;-4.10;99.90
37846;DHT22;23686;49.828;8.702;2022-12-18T09:57:05;-3.90;99.90
37846;DHT22;23686;49.828;8.702;2022-12-18T09:59:35;-3.90;99.90
37846;DHT22;23686;49.828;8.702;2022-12-18T10:02:18;-3.80;99.90
37846;DHT22;23686;49.828;8.702;2022-12-18T10:04:45;-3.80;99.90
37846;DHT22;23686;49.828;8.702;2022-12-18T10:07:19;-3.70;99.90
37846;DHT22;23686;49.828;8.702;2022-12-18T10:09:53;-3.70;99.90
37846;DHT22;23686;49.828;8.702;2022-12-18T10:12:23;-3.60;99.90
37846;DHT22;23686;49.828;8.702;2022-12-18T10:14:55;-3.60;99.90
37846;DHT22;23686;49.828;8.702;2022-12-18T10:20:11;-3.50;99.90
37846;DHT22;23686;49.828;8.702;2022-12-18T10:22:57;-3.40;99.90
37846;DHT22;23686;49.828;8.702;2022-12-18T10:25:31;-3.30;99.90
37846;DHT22;23686;49.828;8.702;2022-12-18T10:28:13;-3.40;99.90
37846;DHT22;23686;49.828;8.702;2022-12-18T10:30:39;-3.30;99.90
37846;DHT22;23686;49.828;8.702;2022-12-18T10:33:04;-3.30;99.90
37846;DHT22;23686;49.828;8.702;2022-12-18T10:35:30;-3.40;99.90
37846;DHT22;23686;49.828;8.702;2022-12-18T10:37:59;-3.30;99.90
37846;DHT22;23686;49.828;8.702;2022-12-18T10:40:26;-3.30;99.90
37846;DHT22;23686;49.828;8.702;2022-12-18T10:43:02;-3.20;99.90
37846;DHT22;23686;49.828;8.702;2022-12-18T10:45:28;-3.20;99.90
37846;DHT22;23686;49.828;8.702;2022-12-18T10:47:53;-3.10;99.90
37846;DHT22;23686;49.828;8.702;2022-12-18T10:52:53;-2.90;99.90
37846;DHT22;23686;49.828;8.702;2022-12-18T10:55:19;-2.80;99.90
37846;DHT22;23686;49.828;8.702;2022-12-18T10:57:44;-2.80;99.90
37846;DHT22;23686;49.828;8.702;2022-12-18T11:00:20;-2.80;99.90
37846;DHT22;23686;49.828;8.702;2022-12-18T11:02:46;-2.70;99.90
37846;DHT22;23686;49.828;8.702;2022-12-18T11:05:28;-2.70;99.90
37846;DHT22;23686;49.828;8.702;2022-12-18T11:07:54;-2.70;99.90
37846;DHT22;23686;49.828;8.702;2022-12-18T11:10:21;-2.70;99.90
37846;DHT22;23686;49.828;8.702;2022-12-18T11:12:47;-2.70;99.90
37846;DHT22;23686;49.828;8.702;2022-12-18T11:15:16;-2.50;99.90
37846;DHT22;23686;49.828;8.702;2022-12-18T11:17:43;-2.50;99.90
37846;DHT22;23686;49.828;8.702;2022-12-18T11:20:19;-2.50;99.90
37846;DHT22;23686;49.828;8.702;2022-12-18T11:22:54;-2.40;99.90
37846;DHT22;23686;49.828;8.702;2022-12-18T11:25:20;-2.50;99.90
37846;DHT22;23686;49.828;8.702;2022-12-18T11:27:56;-2.40;99.90
37846;DHT22;23686;49.828;8.702;2022-12-18T11:30:27;-2.40;99.90
37846;DHT22;23686;49.828;8.702;2022-12-18T11:33:04;-2.30;99.90
37846;DHT22;23686;49.828;8.702;2022-12-18T11:35:34;-2.30;99.90
37846;DHT22;23686;49.828;8.702;2022-12-18T11:38:04;-2.30;99.90
37846;DHT22;23686;49.828;8.702;2022-12-18T11:40:32;-2.20;99.90
37846;DHT22;23686;49.828;8.702;2022-12-18T11:43:01;-2.10;99.90
37846;DHT22;23686;49.828;8.702;2022-12-18T11:45:36;-2.10;99.90
37846;DHT22;23686;49.828;8.702;2022-12-18T11:50:41;-2.10;99.90
37846;DHT22;23686;49.828;8.702;2022-12-18T11:53:10;-2.00;99.90
37846;DHT22;23686;49.828;8.702;2022-12-18T12:00:29;-1.80;99.90
37846;DHT22;23686;49.828;8.702;2022-12-18T12:05:33;-1.70;99.90
37846;DHT22;23686;49.828;8.702;2022-12-18T12:08:11;-1.80;99.90
37846;DHT22;23686;49.828;8.702;2022-12-18T12:21:02;-1.60;99.90
37846;DHT22;23686;49.828;8.702;2022-12-18T12:23:48;-1.60;99.90
37846;DHT22;23686;49.828;8.702;2022-12-18T12:38:52;-1.50;99.90
37846;DHT22;23686;49.828;8.702;2022-12-18T12:41:21;-1.50;99.90
37846;DHT22;23686;49.828;8.702;2022-12-18T12:44:07;-1.50;99.90
37846;DHT22;23686;49.828;8.702;2022-12-18T12:46:35;-1.40;99.90
37846;DHT22;23686;49.828;8.702;2022-12-18T12:49:02;-1.40;99.90
37846;DHT22;23686;49.828;8.702;2022-12-18T12:51:33;-1.30;99.90
37846;DHT22;23686;49.828;8.702;2022-12-18T12:53:59;-1.40;99.90
37846;DHT22;23686;49.828;8.702;2022-12-18T12:56:27;-1.40;99.90
37846;DHT22;23686;49.828;8.702;2022-12-18T13:01:33;-1.30;99.90
37846;DHT22;23686;49.828;8.702;2022-12-18T13:04:03;-1.30;99.90
37846;DHT22;23686;49.828;8.702;2022-12-18T13:06:43;-1.20;99.90
37846;DHT22;23686;49.828;8.702;2022-12-18T13:09:11;-1.20;99.90
37846;DHT22;23686;49.828;8.702;2022-12-18T13:11:41;-1.10;99.90
37846;DHT22;23686;49.828;8.702;2022-12-18T13:19:48;-1.10;99.90
37846;DHT22;23686;49.828;8.702;2022-12-18T13:22:23;-1.20;99.90
37846;DHT22;23686;49.828;8.702;2022-12-18T13:24:49;-1.20;99.90
37846;DHT22;23686;49.828;8.702;2022-12-18T13:29:59;-1.20;99.90
37846;DHT22;23686;49.828;8.702;2022-12-18T13:32:25;-1.30;99.90
37846;DHT22;23686;49.828;8.702;2022-12-18T13:35:36;-1.30;99.90
37846;DHT22;23686;49.828;8.702;2022-12-18T13:37:52;-1.30;99.90
37846;DHT22;23686;49.828;8.702;2022-12-18T13:40:53;-1.20;99.90
37846;DHT22;23686;49.828;8.702;2022-12-18T13:43:21;-1.20;99.90
37846;DHT22;23686;49.828;8.702;2022-12-18T13:46:01;-1.20;99.90
37846;DHT22;23686;49.828;8.702;2022-12-18T13:48:27;-1.20;99.90
37846;DHT22;23686;49.828;8.702;2022-12-18T13:50:58;-1.40;99.90
37846;DHT22;23686;49.828;8.702;2022-12-18T13:53:26;-1.40;99.90
37846;DHT22;23686;49.828;8.702;2022-12-18T13:55:52;-1.40;99.90
37846;DHT22;23686;49.828;8.702;2022-12-18T13:58:18;-1.40;99.90
37846;DHT22;23686;49.828;8.702;2022-12-18T14:00:44;-1.50;99.90
37846;DHT22;23686;49.828;8.702;2022-12-18T14:03:17;-1.50;99.90
37846;DHT22;23686;49.828;8.702;2022-12-18T14:05:43;-1.40;99.90
37846;DHT22;23686;49.828;8.702;2022-12-18T14:08:11;-1.40;99.90
37846;DHT22;23686;49.828;8.702;2022-12-18T14:10:40;-1.40;99.90
37846;DHT22;23686;49.828;8.702;2022-12-18T14:13:08;-1.50;99.90
37846;DHT22;23686;49.828;8.702;2022-12-18T14:15:35;-1.40;99.90
37846;DHT22;23686;49.828;8.702;2022-12-18T14:21:05;-1.40;99.90
37846;DHT22;23686;49.828;8.702;2022-12-18T14:23:36;-1.40;99.90
37846;DHT22;23686;49.828;8.702;2022-12-18T14:26:03;-1.30;99.90
37846;DHT22;23686;49.828;8.702;2022-12-18T14:28:29;-1.30;99.90
37846;DHT22;23686;49.828;8.702;2022-12-18T14:30:54;-1.30;99.90
37846;DHT22;23686;49.828;8.702;2022-12-18T14:33:21;-1.30;99.90
37846;DHT22;23686;49.828;8.702;2022-12-18T14:35:54;-1.30;99.90
37846;DHT22;23686;49.828;8.702;2022-12-18T14:40:56;-1.30;99.90
37846;DHT22;23686;49.828;8.702;2022-12-18T14:43:22;-1.30;99.90
37846;DHT22;23686;49.828;8.702;2022-12-18T14:45:48;-1.30;99.90
37846;DHT22;23686;49.828;8.702;2022-12-18T14:48:19;-1.30;99.90
37846;DHT22;23686;49.828;8.702;2022-12-18T14:50:45;-1.30;99.90
37846;DHT22;23686;49.828;8.702;2022-12-18T14:53:23;-1.30;99.90
37846;DHT22;23686;49.828;8.702;2022-12-18T14:55:52;-1.30;99.90
37846;DHT22;23686;49.828;8.702;2022-12-18T14:58:17;-1.30;99.90
37846;DHT22;23686;49.828;8.702;2022-12-18T15:00:43;-1.30;99.90
37846;DHT22;23686;49.828;8.702;2022-12-18T15:03:09;-1.30;99.90
37846;DHT22;23686;49.828;8.702;2022-12-18T15:05:35;-1.30;99.90
37846;DHT22;23686;49.828;8.702;2022-12-18T15:08:01;-1.30;99.90
37846;DHT22;23686;49.828;8.702;2022-12-18T15:10:33;-1.30;99.90
37846;DHT22;23686;49.828;8.702;2022-12-18T15:13:15;-1.30;99.90
37846;DHT22;23686;49.828;8.702;2022-12-18T15:15:46;-1.30;99.90
37846;DHT22;23686;49.828;8.702;2022-12-18T15:18:16;-1.30;99.90
37846;DHT22;23686;49.828;8.702;2022-12-18T15:23:19;-1.40;99.90
37846;DHT22;23686;49.828;8.702;2022-12-18T15:25:45;-1.30;99.90
37846;DHT22;23686;49.828;8.702;2022-12-18T15:36:00;-1.50;99.90
37846;DHT22;23686;49.828;8.702;2022-12-18T15:38:27;-1.50;99.90
37846;DHT22;23686;49.828;8.702;2022-12-18T15:40:53;-1.50;99.90
37846;DHT22;23686;49.828;8.702;2022-12-18T15:43:20;-1.40;99.90
37846;DHT22;23686;49.828;8.702;2022-12-18T15:46:11;-1.40;99.90
37846;DHT22;23686;49.828;8.702;2022-12-18T15:48:50;-1.50;99.90
37846;DHT22;23686;49.828;8.702;2022-12-18T15:53:52;-1.40;99.90
37846;DHT22;23686;49.828;8.702;2022-12-18T15:56:18;-1.40;99.90
37846;DHT22;23686;49.828;8.702;2022-12-18T15:59:04;-1.50;99.90
37846;DHT22;23686;49.828;8.702;2022-12-18T16:01:33;-1.50;99.90
37846;DHT22;23686;49.828;8.702;2022-12-18T16:03:59;-1.50;99.90
37846;DHT22;23686;49.828;8.702;2022-12-18T16:06:33;-1.50;99.90
37846;DHT22;23686;49.828;8.702;2022-12-18T16:09:00;-1.50;99.90
37846;DHT22;23686;49.828;8.702;2022-12-18T16:11:32;-1.60;99.90
37846;DHT22;23686;49.828;8.702;2022-12-18T16:14:06;-1.60;99.90
37846;DHT22;23686;49.828;8.702;2022-12-18T16:16:31;-1.60;99.90
37846;DHT22;23686;49.828;8.702;2022-12-18T16:19:00;-1.60;99.90
37846;DHT22;23686;49.828;8.702;2022-12-18T16:21:25;-1.60;99.90
37846;DHT22;23686;49.828;8.702;2022-12-18T16:23:52;-1.60;99.90
37846;DHT22;23686;49.828;8.702;2022-12-18T16:26:17;-1.60;99.90
37846;DHT22;23686;49.828;8.702;2022-12-18T16:28:46;-1.60;99.90
37846;DHT22;23686;49.828;8.702;2022-12-18T16:31:19;-1.70;99.90
37846;DHT22;23686;49.828;8.702;2022-12-18T16:33:46;-1.70;99.90
37846;DHT22;23686;49.828;8.702;2022-12-18T16:36:11;-1.60;99.90
37846;DHT22;23686;49.828;8.702;2022-12-18T16:38:37;-1.60;99.90
37846;DHT22;23686;49.828;8.702;2022-12-18T16:43:56;-1.60;99.90
37846;DHT22;23686;49.828;8.702;2022-12-18T16:46:22;-1.60;99.90
37846;DHT22;23686;49.828;8.702;2022-12-18T16:48:47;-1.60;99.90
37846;DHT22;23686;49.828;8.702;2022-12-18T16:51:18;-1.70;99.90
37846;DHT22;23686;49.828;8.702;2022-12-18T16:53:47;-1.70;99.90
37846;DHT22;23686;49.828;8.702;2022-12-18T16:56:19;-1.70;99.90
37846;DHT22;23686;49.828;8.702;2022-12-18T16:58:55;-1.70;99.90
37846;DHT22;23686;49.828;8.702;2022-12-18T17:01:28;-1.70;99.90
37846;DHT22;23686;49.828;8.702;2022-12-18T17:04:12;-1.70;99.90
37846;DHT22;23686;49.828;8.702;2022-12-18T17:06:39;-1.70;99.90
37846;DHT22;23686;49.828;8.702;2022-12-18T17:09:10;-1.80;99.90
37846;DHT22;23686;49.828;8.702;2022-12-18T17:11:36;-1.80;99.90